sensor_id;sensor_type;location;lat;lon;timestamp;temperature;humidity
38936;DHT22;25541;47.458;9.644;2022-11-12T04:02:20;8.90;99.90
38936;DHT22;25541;47.458;9.644;2022-11-12T04:04:45;8.80;99.90
38936;DHT22;25541;47.458;9.644;2022-11-12T04:07:30;8.80;99.90
38936;DHT22;25541;47.458;9.644;2022-11-12T04:10:14;8.80;99.90
38936;DHT22;25541;47.458;9.644;2022-11-12T04:12:39;8.80;99.90
38936;DHT22;25541;47.458;9.644;2022-11-12T04:15:24;8.90;99.90
38936;DHT22;25541;47.458;9.644;2022-11-12T04:17:49;8.90;99.90
38936;DHT22;25541;47.458;9.644;2022-11-12T04:20:33;8.90;99.90
38936;DHT22;25541;47.458;9.644;2022-11-12T04:23:17;8.90;99.90
38936;DHT22;25541;47.458;9.644;2022-11-12T04:25:43;8.90;99.90
38936;DHT22;25541;47.458;9.644;2022-11-12T04:28:28;8.90;99.90
38936;DHT22;25541;47.458;9.644;2022-11-12T04:30:54;8.90;99.90
38936;DHT22;25541;47.458;9.644;2022-11-12T04:33:19;8.90;99.90
38936;DHT22;25541;47.458;9.644;2022-11-12T04:35:45;8.90;99.90
38936;DHT22;25541;47.458;9.644;2022-11-12T04:38:11;8.80;99.90
38936;DHT22;25541;47.458;9.644;2022-11-12T04:40:36;8.80;99.90
38936;DHT22;25541;47.458;9.644;2022-11-12T04:43:20;8.70;99.90
38936;DHT22;25541;47.458;9.644;2022-11-12T04:46:04;8.60;99.90
38936;DHT22;25541;47.458;9.644;2022-11-12T04:48:30;8.60;99.90
38936;DHT22;25541;47.458;9.644;2022-11-12T04:50:58;8.60;99.90
38936;DHT22;25541;47.458;9.644;2022-11-12T04:53:24;8.60;99.90
38936;DHT22;25541;47.458;9.644;2022-11-12T04:55:51;8.50;99.90
38936;DHT22;25541;47.458;9.644;2022-11-12T04:58:18;8.50;99.90
38936;DHT22;25541;47.458;9.644;2022-11-12T05:00:44;8.60;99.90
38936;DHT22;25541;47.458;9.644;2022-11-12T05:03:09;8.60;99.90
38936;DHT22;25541;47.458;9.644;2022-11-12T05:05:35;8.70;99.90
38936;DHT22;25541;47.458;9.644;2022-11-12T05:08:01;8.70;99.90
38936;DHT22;25541;47.458;9.644;2022-11-12T05:10:27;8.70;99.90
38936;DHT22;25541;47.458;9.644;2022-11-12T05:12:53;8.80;99.90
38936;DHT22;25541;47.458;9.644;2022-11-12T05:15:18;8.70;99.90
38936;DHT22;25541;47.458;9.644;2022-11-12T05:17:44;8.70;99.90
38936;DHT22;25541;47.458;9.644;2022-11-12T05:20:10;8.70;99.90
38936;DHT22;25541;47.458;9.644;2022-11-12T05:22:37;8.80;99.90
38936;DHT22;25541;47.458;9.644;2022-11-12T05:25:03;8.80;99.90
38936;DHT22;25541;47.458;9.644;2022-11-12T05:27:28;8.80;99.90
38936;DHT22;25541;47.458;9.644;2022-11-12T05:29:54;8.80;99.90
38936;DHT22;25541;47.458;9.644;2022-11-12T05:32:20;8.80;99.90
38936;DHT22;25541;47.458;9.644;2022-11-12T05:34:45;8.80;99.90
38936;DHT22;25541;47.458;9.644;2022-11-12T05:37:12;8.80;99.90
38936;DHT22;25541;47.458;9.644;2022-11-12T05:39:38;8.80;99.90
38936;DHT22;25541;47.458;9.644;2022-11-12T05:42:04;8.80;99.90
38936;DHT22;25541;47.458;9.644;2022-11-12T05:44:30;8.80;99.90
38936;DHT22;25541;47.458;9.644;2022-11-12T05:46:56;8.80;99.90
38936;DHT22;25541;47.458;9.644;2022-11-12T05:49:21;8.70;99.90
38936;DHT22;25541;47.458;9.644;2022-11-12T05:51:47;8.70;99.90
38936;DHT22;25541;47.458;9.644;2022-11-12T05:54:13;8.70;99.90
38936;DHT22;25541;47.458;9.644;2022-11-12T05:56:39;8.70;99.90
38936;DHT22;25541;47.458;9.644;2022-11-12T05:59:06;8.70;99.90
38936;DHT22;25541;47.458;9.644;2022-11-12T06:01:33;8.70;99.90
38936;DHT22;25541;47.458;9.644;2022-11-12T06:04:03;8.70;99.90
38936;DHT22;25541;47.458;9.644;2022-11-12T06:06:28;8.70;99.90
38936;DHT22;25541;47.458;9.644;2022-11-12T06:08:54;8.70;99.90
38936;DHT22;25541;47.458;9.644;2022-11-12T06:11:20;8.70;99.90
38936;DHT22;25541;47.458;9.644;2022-11-12T06:13:45;8.70;99.90
38936;DHT22;25541;47.458;9.644;2022-11-12T06:16:11;8.70;99.90
38936;DHT22;25541;47.458;9.644;2022-11-12T06:18:37;8.70;99.90
38936;DHT22;25541;47.458;9.644;2022-11-12T06:21:07;8.70;99.90
38936;DHT22;25541;47.458;9.644;2022-11-12T06:23:51;8.70;99.90
38936;DHT22;25541;47.458;9.644;2022-11-12T06:26:18;8.70;99.90
38936;DHT22;25541;47.458;9.644;2022-11-12T06:28:45;8.70;99.90
38936;DHT22;25541;47.458;9.644;2022-11-12T06:31:11;8.70;99.90
38936;DHT22;25541;47.458;9.644;2022-11-12T06:33:36;8.80;99.90
38936;DHT22;25541;47.458;9.644;2022-11-12T06:36:04;8.70;99.90
38936;DHT22;25541;47.458;9.644;2022-11-12T06:38:34;8.70;99.90
38936;DHT22;25541;47.458;9.644;2022-11-12T06:41:00;8.70;99.90
38936;DHT22;25541;47.458;9.644;2022-11-12T06:43:28;8.60;99.90
38936;DHT22;25541;47.458;9.644;2022-11-12T06:45:58;8.60;99.90
38936;DHT22;25541;47.458;9.644;2022-11-12T06:48:24;8.50;99.90
38936;DHT22;25541;47.458;9.644;2022-11-12T06:50:49;8.60;99.90
38936;DHT22;25541;47.458;9.644;2022-11-12T06:53:15;8.50;99.90
38936;DHT22;25541;47.458;9.644;2022-11-12T06:55:41;8.50;99.90
38936;DHT22;25541;47.458;9.644;2022-11-12T06:58:06;8.60;99.90
38936;DHT22;25541;47.458;9.644;2022-11-12T07:00:32;8.60;99.90
38936;DHT22;25541;47.458;9.644;2022-11-12T07:02:58;8.70;99.90
38936;DHT22;25541;47.458;9.644;2022-11-12T07:05:24;8.60;99.90
38936;DHT22;25541;47.458;9.644;2022-11-12T07:07:49;8.60;99.90
38936;DHT22;25541;47.458;9.644;2022-11-12T07:10:15;8.60;99.90
38936;DHT22;25541;47.458;9.644;2022-11-12T07:12:41;8.70;99.90
38936;DHT22;25541;47.458;9.644;2022-11-12T07:15:07;8.70;99.90
38936;DHT22;25541;47.458;9.644;2022-11-12T07:17:32;8.80;99.90
38936;DHT22;25541;47.458;9.644;2022-11-12T07:19:58;8.90;99.90
38936;DHT22;25541;47.458;9.644;2022-11-12T07:22:25;9.00;99.90
38936;DHT22;25541;47.458;9.644;2022-11-12T07:24:51;9.00;99.90
38936;DHT22;25541;47.458;9.644;2022-11-12T07:27:16;9.00;99.90
38936;DHT22;25541;47.458;9.644;2022-11-12T07:29:42;9.00;99.90
38936;DHT22;25541;47.458;9.644;2022-11-12T07:32:08;9.00;99.90
38936;DHT22;25541;47.458;9.644;2022-11-12T07:34:33;9.00;99.90
38936;DHT22;25541;47.458;9.644;2022-11-12T07:36:59;9.10;99.90
38936;DHT22;25541;47.458;9.644;2022-11-12T07:39:24;9.20;99.90
38936;DHT22;25541;47.458;9.644;2022-11-12T07:41:50;9.30;99.90
38936;DHT22;25541;47.458;9.644;2022-11-12T07:44:16;9.30;99.90
38936;DHT22;25541;47.458;9.644;2022-11-12T07:46:42;9.40;99.90
38936;DHT22;25541;47.458;9.644;2022-11-12T07:49:07;9.40;99.50
38936;DHT22;25541;47.458;9.644;2022-11-12T07:51:33;9.30;99.60
38936;DHT22;25541;47.458;9.644;2022-11-12T07:53:59;9.10;99.60
38936;DHT22;25541;47.458;9.644;2022-11-12T07:56:25;9.10;99.90
38936;DHT22;25541;47.458;9.644;2022-11-12T07:58:51;8.90;99.90
38936;DHT22;25541;47.458;9.644;2022-11-12T08:03:58;8.90;99.90
38936;DHT22;25541;47.458;9.644;2022-11-12T08:06:25;9.00;99.90
38936;DHT22;25541;47.458;9.644;2022-11-12T08:08:55;9.10;99.90
38936;DHT22;25541;47.458;9.644;2022-11-12T08:11:21;9.20;99.90
38936;DHT22;25541;47.458;9.644;2022-11-12T08:13:47;9.20;99.60
38936;DHT22;25541;47.458;9.644;2022-11-12T08:16:13;9.20;99.10
38936;DHT22;25541;47.458;9.644;2022-11-12T08:18:39;9.10;99.20
38936;DHT22;25541;47.458;9.644;2022-11-12T08:21:06;9.00;99.90
38936;DHT22;25541;47.458;9.644;2022-11-12T08:23:32;9.00;99.50
38936;DHT22;25541;47.458;9.644;2022-11-12T08:25:59;8.90;99.90
38936;DHT22;25541;47.458;9.644;2022-11-12T08:28:27;8.90;99.90
38936;DHT22;25541;47.458;9.644;2022-11-12T08:30:53;9.00;99.80
38936;DHT22;25541;47.458;9.644;2022-11-12T08:33:20;9.10;99.80
38936;DHT22;25541;47.458;9.644;2022-11-12T08:35:45;9.20;99.20
38936;DHT22;25541;47.458;9.644;2022-11-12T08:38:11;9.30;99.10
38936;DHT22;25541;47.458;9.644;2022-11-12T08:40:38;9.40;99.00
38936;DHT22;25541;47.458;9.644;2022-11-12T08:43:06;9.40;98.10
38936;DHT22;25541;47.458;9.644;2022-11-12T08:45:35;9.50;98.20
38936;DHT22;25541;47.458;9.644;2022-11-12T08:48:03;9.50;97.70
38936;DHT22;25541;47.458;9.644;2022-11-12T08:50:30;9.50;97.80
38936;DHT22;25541;47.458;9.644;2022-11-12T08:52:59;9.60;97.70
38936;DHT22;25541;47.458;9.644;2022-11-12T08:55:29;9.60;97.50
38936;DHT22;25541;47.458;9.644;2022-11-12T08:57:55;9.60;97.80
38936;DHT22;25541;47.458;9.644;2022-11-12T09:00:36;9.70;97.20
38936;DHT22;25541;47.458;9.644;2022-11-12T09:03:03;9.70;97.20
38936;DHT22;25541;47.458;9.644;2022-11-12T09:05:30;9.70;96.90
38936;DHT22;25541;47.458;9.644;2022-11-12T09:07:57;9.80;96.90
38936;DHT22;25541;47.458;9.644;2022-11-12T09:10:24;9.80;97.40
38936;DHT22;25541;47.458;9.644;2022-11-12T09:12:50;9.80;96.30
38936;DHT22;25541;47.458;9.644;2022-11-12T09:15:17;9.90;96.70
38936;DHT22;25541;47.458;9.644;2022-11-12T09:17:42;9.80;96.60
38936;DHT22;25541;47.458;9.644;2022-11-12T09:20:08;9.90;96.80
38936;DHT22;25541;47.458;9.644;2022-11-12T09:22:34;9.90;96.20
38936;DHT22;25541;47.458;9.644;2022-11-12T09:24:59;9.90;96.30
38936;DHT22;25541;47.458;9.644;2022-11-12T09:27:26;9.90;96.80
38936;DHT22;25541;47.458;9.644;2022-11-12T09:29:52;10.10;96.80
38936;DHT22;25541;47.458;9.644;2022-11-12T09:32:17;10.20;96.60
38936;DHT22;25541;47.458;9.644;2022-11-12T09:34:43;10.30;96.40
38936;DHT22;25541;47.458;9.644;2022-11-12T09:37:09;10.40;95.50
38936;DHT22;25541;47.458;9.644;2022-11-12T09:39:34;10.30;95.50
38936;DHT22;25541;47.458;9.644;2022-11-12T09:42:06;10.30;95.30
38936;DHT22;25541;47.458;9.644;2022-11-12T09:44:34;10.20;95.40
38936;DHT22;25541;47.458;9.644;2022-11-12T09:47:19;10.30;95.80
38936;DHT22;25541;47.458;9.644;2022-11-12T09:52:25;10.50;94.70
38936;DHT22;25541;47.458;9.644;2022-11-12T09:55:00;10.50;95.00
38936;DHT22;25541;47.458;9.644;2022-11-12T09:57:27;10.60;94.80
38936;DHT22;25541;47.458;9.644;2022-11-12T09:59:53;10.70;94.40
38936;DHT22;25541;47.458;9.644;2022-11-12T10:02:26;10.70;94.40
38936;DHT22;25541;47.458;9.644;2022-11-12T10:07:38;10.90;93.90
38936;DHT22;25541;47.458;9.644;2022-11-12T10:24:28;11.20;92.80
38936;DHT22;25541;47.458;9.644;2022-11-12T10:26:58;11.30;93.30
38936;DHT22;25541;47.458;9.644;2022-11-12T10:29:37;11.30;92.90
38936;DHT22;25541;47.458;9.644;2022-11-12T10:32:12;11.40;92.70
38936;DHT22;25541;47.458;9.644;2022-11-12T10:34:39;11.40;93.00
38936;DHT22;25541;47.458;9.644;2022-11-12T10:37:10;11.40;92.40
38936;DHT22;25541;47.458;9.644;2022-11-12T10:39:42;11.50;92.70
38936;DHT22;25541;47.458;9.644;2022-11-12T10:42:09;11.40;92.10
38936;DHT22;25541;47.458;9.644;2022-11-12T10:44:39;11.30;92.50
38936;DHT22;25541;47.458;9.644;2022-11-12T10:52:28;11.20;93.40
38936;DHT22;25541;47.458;9.644;2022-11-12T10:55:16;11.20;93.30
38936;DHT22;25541;47.458;9.644;2022-11-12T10:57:42;11.00;93.40
38936;DHT22;25541;47.458;9.644;2022-11-12T11:02:40;11.10;93.70
38936;DHT22;25541;47.458;9.644;2022-11-12T11:07:57;11.20;93.40
38936;DHT22;25541;47.458;9.644;2022-11-12T11:10:32;11.10;92.90
38936;DHT22;25541;47.458;9.644;2022-11-12T11:13:27;11.10;93.00
38936;DHT22;25541;47.458;9.644;2022-11-12T11:16:01;11.10;93.20
38936;DHT22;25541;47.458;9.644;2022-11-12T11:18:28;11.20;93.60
38936;DHT22;25541;47.458;9.644;2022-11-12T11:29:20;11.30;93.10
38936;DHT22;25541;47.458;9.644;2022-11-12T11:31:57;11.30;92.70
38936;DHT22;25541;47.458;9.644;2022-11-12T11:37:18;11.50;92.60
38936;DHT22;25541;47.458;9.644;2022-11-12T11:44:42;11.50;92.20
38936;DHT22;25541;47.458;9.644;2022-11-12T12:11:39;11.70;91.90
38936;DHT22;25541;47.458;9.644;2022-11-12T12:17:03;11.80;91.50
38936;DHT22;25541;47.458;9.644;2022-11-12T12:19:52;11.80;91.20
38936;DHT22;25541;47.458;9.644;2022-11-12T12:22:27;11.80;91.30
38936;DHT22;25541;47.458;9.644;2022-11-12T12:25:02;11.80;91.40
38936;DHT22;25541;47.458;9.644;2022-11-12T12:27:37;11.90;91.10
38936;DHT22;25541;47.458;9.644;2022-11-12T12:30:21;12.00;91.20
38936;DHT22;25541;47.458;9.644;2022-11-12T12:38:48;11.90;91.10
38936;DHT22;25541;47.458;9.644;2022-11-12T12:43:45;11.80;90.90
38936;DHT22;25541;47.458;9.644;2022-11-12T12:46:15;11.80;90.70
38936;DHT22;25541;47.458;9.644;2022-11-12T12:48:43;11.80;91.30
38936;DHT22;25541;47.458;9.644;2022-11-12T12:51:10;11.80;90.70
38936;DHT22;25541;47.458;9.644;2022-11-12T12:53:36;11.80;90.90
38936;DHT22;25541;47.458;9.644;2022-11-12T12:56:41;11.60;91.40
38936;DHT22;25541;47.458;9.644;2022-11-12T12:58:52;11.60;91.80
38936;DHT22;25541;47.458;9.644;2022-11-12T13:04:03;11.60;91.50
38936;DHT22;25541;47.458;9.644;2022-11-12T13:40:51;11.50;91.20
38936;DHT22;25541;47.458;9.644;2022-11-12T13:43:20;11.50;91.40
38936;DHT22;25541;47.458;9.644;2022-11-12T13:48:42;11.50;91.50
38936;DHT22;25541;47.458;9.644;2022-11-12T13:53:43;11.30;91.70
38936;DHT22;25541;47.458;9.644;2022-11-12T13:56:10;11.30;92.30
38936;DHT22;25541;47.458;9.644;2022-11-12T13:58:36;11.30;92.00
38936;DHT22;25541;47.458;9.644;2022-11-12T14:01:05;11.40;92.30
38936;DHT22;25541;47.458;9.644;2022-11-12T14:06:14;11.40;92.30
38936;DHT22;25541;47.458;9.644;2022-11-12T14:09:02;11.40;92.60
38936;DHT22;25541;47.458;9.644;2022-11-12T14:11:57;11.40;92.10
38936;DHT22;25541;47.458;9.644;2022-11-12T14:20:22;11.40;92.20
38936;DHT22;25541;47.458;9.644;2022-11-12T14:22:49;11.20;92.60
38936;DHT22;25541;47.458;9.644;2022-11-12T14:25:24;11.10;92.80
38936;DHT22;25541;47.458;9.644;2022-11-12T14:27:54;11.20;92.70
38936;DHT22;25541;47.458;9.644;2022-11-12T14:30:25;11.20;92.70
38936;DHT22;25541;47.458;9.644;2022-11-12T14:32:59;11.20;92.70
38936;DHT22;25541;47.458;9.644;2022-11-12T14:38:03;11.30;92.60
38936;DHT22;25541;47.458;9.644;2022-11-12T14:40:32;11.30;92.30
38936;DHT22;25541;47.458;9.644;2022-11-12T14:42:58;11.30;92.30
38936;DHT22;25541;47.458;9.644;2022-11-12T14:45:24;11.20;92.80
38936;DHT22;25541;47.458;9.644;2022-11-12T14:47:51;11.20;92.60
38936;DHT22;25541;47.458;9.644;2022-11-12T14:50:31;11.30;92.60
38936;DHT22;25541;47.458;9.644;2022-11-12T14:53:05;11.30;92.50
38936;DHT22;25541;47.458;9.644;2022-11-12T14:55:36;11.30;93.10
38936;DHT22;25541;47.458;9.644;2022-11-12T14:58:03;11.20;93.00
38936;DHT22;25541;47.458;9.644;2022-11-12T15:02:59;11.30;92.30
38936;DHT22;25541;47.458;9.644;2022-11-12T15:05:26;11.20;92.80
38936;DHT22;25541;47.458;9.644;2022-11-12T15:08:00;11.10;92.70
38936;DHT22;25541;47.458;9.644;2022-11-12T15:15:34;11.10;92.90
38936;DHT22;25541;47.458;9.644;2022-11-12T15:18:03;11.10;92.80
38936;DHT22;25541;47.458;9.644;2022-11-12T15:20:30;11.10;92.80
38936;DHT22;25541;47.458;9.644;2022-11-12T15:22:56;11.00;93.10
38936;DHT22;25541;47.458;9.644;2022-11-12T15:25:23;11.00;92.80
38936;DHT22;25541;47.458;9.644;2022-11-12T15:27:49;11.00;93.00
38936;DHT22;25541;47.458;9.644;2022-11-12T15:30:24;11.00;92.90
38936;DHT22;25541;47.458;9.644;2022-11-12T15:33:20;11.00;93.00
38936;DHT22;25541;47.458;9.644;2022-11-12T15:36:00;10.90;93.20
38936;DHT22;25541;47.458;9.644;2022-11-12T15:38:34;10.90;93.50
38936;DHT22;25541;47.458;9.644;2022-11-12T15:41:02;10.90;93.30
38936;DHT22;25541;47.458;9.644;2022-11-12T15:43:31;10.80;93.30
38936;DHT22;25541;47.458;9.644;2022-11-12T15:45:57;10.70;93.80
38936;DHT22;25541;47.458;9.644;2022-11-12T15:48:23;10.70;93.90
38936;DHT22;25541;47.458;9.644;2022-11-12T15:50:49;10.60;94.10
38936;DHT22;25541;47.458;9.644;2022-11-12T15:53:15;10.60;94.10
38936;DHT22;25541;47.458;9.644;2022-11-12T15:55:42;10.50;94.60
38936;DHT22;25541;47.458;9.644;2022-11-12T15:58:28;10.60;94.70
38936;DHT22;25541;47.458;9.644;2022-11-12T16:00:55;10.60;94.50
38936;DHT22;25541;47.458;9.644;2022-11-12T16:03:21;10.60;94.20
38936;DHT22;25541;47.458;9.644;2022-11-12T16:05:47;10.60;94.20
38936;DHT22;25541;47.458;9.644;2022-11-12T16:08:13;10.60;94.30
38936;DHT22;25541;47.458;9.644;2022-11-12T16:10:40;10.60;94.20
38936;DHT22;25541;47.458;9.644;2022-11-12T16:13:13;10.60;94.30
38936;DHT22;25541;47.458;9.644;2022-11-12T16:15:39;10.60;94.20
38936;DHT22;25541;47.458;9.644;2022-11-12T16:18:07;10.50;94.50
38936;DHT22;25541;47.458;9.644;2022-11-12T16:20:34;10.50;94.60
38936;DHT22;25541;47.458;9.644;2022-11-12T16:23:00;10.40;94.50
38936;DHT22;25541;47.458;9.644;2022-11-12T16:25:34;10.50;94.40
38936;DHT22;25541;47.458;9.644;2022-11-12T16:28:00;10.50;94.30
38936;DHT22;25541;47.458;9.644;2022-11-12T16:30:30;10.50;94.60
38936;DHT22;25541;47.458;9.644;2022-11-12T16:32:57;10.50;94.40
38936;DHT22;25541;47.458;9.644;2022-11-12T16:35:23;10.50;94.60
38936;DHT22;25541;47.458;9.644;2022-11-12T16:37:52;10.50;94.60
38936;DHT22;25541;47.458;9.644;2022-11-12T16:40:21;10.50;94.60
38936;DHT22;25541;47.458;9.644;2022-11-12T16:42:47;10.50;94.60
38936;DHT22;25541;47.458;9.644;2022-11-12T16:45:18;10.50;94.40
38936;DHT22;25541;47.458;9.644;2022-11-12T16:47:50;10.30;94.50
38936;DHT22;25541;47.458;9.644;2022-11-12T16:50:18;10.20;95.10
38936;DHT22;25541;47.458;9.644;2022-11-12T16:52:46;10.20;95.30
38936;DHT22;25541;47.458;9.644;2022-11-12T16:55:12;10.30;95.20
38936;DHT22;25541;47.458;9.644;2022-11-12T16:57:37;10.30;95.10
38936;DHT22;25541;47.458;9.644;2022-11-12T17:00:06;10.30;95.10
38936;DHT22;25541;47.458;9.644;2022-11-12T17:02:32;10.30;95.10
38936;DHT22;25541;47.458;9.644;2022-11-12T17:05:01;10.30;95.20
38936;DHT22;25541;47.458;9.644;2022-11-12T17:07:27;10.30;95.20
38936;DHT22;25541;47.458;9.644;2022-11-12T17:09:53;10.20;95.30
38936;DHT22;25541;47.458;9.644;2022-11-12T17:12:19;10.20;95.40
38936;DHT22;25541;47.458;9.644;2022-11-12T17:14:45;10.20;95.50
38936;DHT22;25541;47.458;9.644;2022-11-12T17:17:10;10.20;95.70
38936;DHT22;25541;47.458;9.644;2022-11-12T17:19:36;10.20;95.60
38936;DHT22;25541;47.458;9.644;2022-11-12T17:22:02;10.30;95.70
38936;DHT22;25541;47.458;9.644;2022-11-12T17:24:28;10.30;95.80
38936;DHT22;25541;47.458;9.644;2022-11-12T17:26:53;10.30;95.70
38936;DHT22;25541;47.458;9.644;2022-11-12T17:29:19;10.30;95.70
38936;DHT22;25541;47.458;9.644;2022-11-12T17:31:48;10.40;95.60
38936;DHT22;25541;47.458;9.644;2022-11-12T17:34:14;10.30;95.30
38936;DHT22;25541;47.458;9.644;2022-11-12T17:36:40;10.30;95.50
38936;DHT22;25541;47.458;9.644;2022-11-12T17:39:09;10.20;95.70
38936;DHT22;25541;47.458;9.644;2022-11-12T17:41:35;10.10;95.80
38936;DHT22;25541;47.458;9.644;2022-11-12T17:44:01;10.20;95.70
38936;DHT22;25541;47.458;9.644;2022-11-12T17:46:28;10.20;95.80
38936;DHT22;25541;47.458;9.644;2022-11-12T17:48:54;10.20;95.80
38936;DHT22;25541;47.458;9.644;2022-11-12T17:51:22;10.20;95.60
38936;DHT22;25541;47.458;9.644;2022-11-12T17:53:48;10.10;95.80
38936;DHT22;25541;47.458;9.644;2022-11-12T17:56:17;10.10;96.20
38936;DHT22;25541;47.458;9.644;2022-11-12T17:58:43;10.10;96.20
38936;DHT22;25541;47.458;9.644;2022-11-12T18:01:13;10.10;96.20
38936;DHT22;25541;47.458;9.644;2022-11-12T18:03:41;10.00;96.20
38936;DHT22;25541;47.458;9.644;2022-11-12T18:06:10;10.00;96.10
38936;DHT22;25541;47.458;9.644;2022-11-12T18:08:40;10.00;96.30
38936;DHT22;25541;47.458;9.644;2022-11-12T18:11:10;10.00;96.70
38936;DHT22;25541;47.458;9.644;2022-11-12T18:13:36;10.00;96.90
38936;DHT22;25541;47.458;9.644;2022-11-12T18:16:16;10.00;96.60
38936;DHT22;25541;47.458;9.644;2022-11-12T18:18:43;9.90;96.70
38936;DHT22;25541;47.458;9.644;2022-11-12T18:21:09;10.00;97.00
38936;DHT22;25541;47.458;9.644;2022-11-12T18:23:39;10.00;96.90
38936;DHT22;25541;47.458;9.644;2022-11-12T18:26:05;10.10;96.70
38936;DHT22;25541;47.458;9.644;2022-11-12T18:28:32;10.10;96.50
38936;DHT22;25541;47.458;9.644;2022-11-12T18:31:02;10.20;96.50
38936;DHT22;25541;47.458;9.644;2022-11-12T18:33:29;10.10;96.60
38936;DHT22;25541;47.458;9.644;2022-11-12T18:36:11;10.10;96.60
38936;DHT22;25541;47.458;9.644;2022-11-12T18:38:37;10.10;96.70
38936;DHT22;25541;47.458;9.644;2022-11-12T18:41:09;10.10;96.60
38936;DHT22;25541;47.458;9.644;2022-11-12T18:43:35;10.10;96.50
38936;DHT22;25541;47.458;9.644;2022-11-12T18:46:02;10.10;96.40
38936;DHT22;25541;47.458;9.644;2022-11-12T18:48:29;10.10;96.60
38936;DHT22;25541;47.458;9.644;2022-11-12T18:51:00;10.10;96.70
38936;DHT22;25541;47.458;9.644;2022-11-12T18:53:27;10.00;96.70
38936;DHT22;25541;47.458;9.644;2022-11-12T18:56:05;10.00;96.90
38936;DHT22;25541;47.458;9.644;2022-11-12T18:58:31;10.10;96.90
38936;DHT22;25541;47.458;9.644;2022-11-12T19:01:07;10.00;96.90
38936;DHT22;25541;47.458;9.644;2022-11-12T19:03:33;10.10;96.80
38936;DHT22;25541;47.458;9.644;2022-11-12T19:06:00;10.10;97.00
38936;DHT22;25541;47.458;9.644;2022-11-12T19:08:27;10.10;96.80
38936;DHT22;25541;47.458;9.644;2022-11-12T19:11:02;10.10;96.80
38936;DHT22;25541;47.458;9.644;2022-11-12T19:13:28;10.00;96.80
38936;DHT22;25541;47.458;9.644;2022-11-12T19:15:54;10.10;96.70
38936;DHT22;25541;47.458;9.644;2022-11-12T19:18:19;10.00;96.70
38936;DHT22;25541;47.458;9.644;2022-11-12T19:20:46;10.00;96.80
38936;DHT22;25541;47.458;9.644;2022-11-12T19:23:12;9.90;96.80
38936;DHT22;25541;47.458;9.644;2022-11-12T19:25:38;9.90;97.00
38936;DHT22;25541;47.458;9.644;2022-11-12T19:28:04;9.90;96.80
38936;DHT22;25541;47.458;9.644;2022-11-12T19:30:29;9.90;96.70
38936;DHT22;25541;47.458;9.644;2022-11-12T19:32:55;9.90;96.70
38936;DHT22;25541;47.458;9.644;2022-11-12T19:35:21;9.80;96.30
38936;DHT22;25541;47.458;9.644;2022-11-12T19:37:47;9.70;96.40
38936;DHT22;25541;47.458;9.644;2022-11-12T19:40:13;9.60;96.90
38936;DHT22;25541;47.458;9.644;2022-11-12T19:42:39;9.50;97.20
38936;DHT22;25541;47.458;9.644;2022-11-12T19:45:05;9.50;96.90
38936;DHT22;25541;47.458;9.644;2022-11-12T19:47:31;9.50;97.30
38936;DHT22;25541;47.458;9.644;2022-11-12T19:49:56;9.50;97.00
38936;DHT22;25541;47.458;9.644;2022-11-12T19:52:22;9.40;97.20
38936;DHT22;25541;47.458;9.644;2022-11-12T19:54:47;9.40;97.60
38936;DHT22;25541;47.458;9.644;2022-11-12T19:57:13;9.40;97.50
38936;DHT22;25541;47.458;9.644;2022-11-12T19:59:39;9.30;97.90
38936;DHT22;25541;47.458;9.644;2022-11-12T20:02:05;9.30;97.80
38936;DHT22;25541;47.458;9.644;2022-11-12T20:04:30;9.40;98.00
38936;DHT22;25541;47.458;9.644;2022-11-12T20:06:56;9.40;97.80
38936;DHT22;25541;47.458;9.644;2022-11-12T20:09:22;9.40;97.50
38936;DHT22;25541;47.458;9.644;2022-11-12T20:11:47;9.20;97.70
38936;DHT22;25541;47.458;9.644;2022-11-12T20:14:15;9.10;98.00
38936;DHT22;25541;47.458;9.644;2022-11-12T20:16:40;9.10;98.40
38936;DHT22;25541;47.458;9.644;2022-11-12T20:19:06;9.00;98.60
38936;DHT22;25541;47.458;9.644;2022-11-12T20:21:32;9.00;98.80
38936;DHT22;25541;47.458;9.644;2022-11-12T20:23:57;9.00;99.10
38936;DHT22;25541;47.458;9.644;2022-11-12T20:26:24;8.90;99.10
38936;DHT22;25541;47.458;9.644;2022-11-12T20:28:51;8.90;99.50
38936;DHT22;25541;47.458;9.644;2022-11-12T20:31:18;9.00;99.30
38936;DHT22;25541;47.458;9.644;2022-11-12T20:33:46;9.00;99.30
38936;DHT22;25541;47.458;9.644;2022-11-12T20:36:13;8.90;99.40
38936;DHT22;25541;47.458;9.644;2022-11-12T20:38:41;8.90;99.90
38936;DHT22;25541;47.458;9.644;2022-11-12T20:41:21;8.90;99.40
38936;DHT22;25541;47.458;9.644;2022-11-12T20:43:53;8.80;99.60
38936;DHT22;25541;47.458;9.644;2022-11-12T20:46:20;8.80;99.90
38936;DHT22;25541;47.458;9.644;2022-11-12T20:48:45;8.70;99.90
38936;DHT22;25541;47.458;9.644;2022-11-12T20:51:14;8.70;99.90
38936;DHT22;25541;47.458;9.644;2022-11-12T20:53:41;8.80;99.90
38936;DHT22;25541;47.458;9.644;2022-11-12T20:56:12;8.90;99.90
38936;DHT22;25541;47.458;9.644;2022-11-12T20:58:39;8.90;99.70
38936;DHT22;25541;47.458;9.644;2022-11-12T21:01:07;8.80;99.70
38936;DHT22;25541;47.458;9.644;2022-11-12T21:03:35;8.70;99.90
38936;DHT22;25541;47.458;9.644;2022-11-12T21:06:08;8.60;99.90
38936;DHT22;25541;47.458;9.644;2022-11-12T21:08:37;8.60;99.90
38936;DHT22;25541;47.458;9.644;2022-11-12T21:11:06;8.60;99.90
38936;DHT22;25541;47.458;9.644;2022-11-12T21:13:33;8.50;99.90
38936;DHT22;25541;47.458;9.644;2022-11-12T21:16:01;8.50;99.90
38936;DHT22;25541;47.458;9.644;2022-11-12T21:18:28;8.50;99.90
38936;DHT22;25541;47.458;9.644;2022-11-12T21:21:01;8.60;99.90
38936;DHT22;25541;47.458;9.644;2022-11-12T21:23:29;8.70;99.90
38936;DHT22;25541;47.458;9.644;2022-11-12T21:25:59;8.80;99.90
38936;DHT22;25541;47.458;9.644;2022-11-12T21:28:25;8.90;99.90
38936;DHT22;25541;47.458;9.644;2022-11-12T21:30:51;9.00;99.90
38936;DHT22;25541;47.458;9.644;2022-11-12T21:33:17;9.10;99.90
38936;DHT22;25541;47.458;9.644;2022-11-12T21:35:42;9.10;99.80
38936;DHT22;25541;47.458;9.644;2022-11-12T21:38:15;9.10;99.50
38936;DHT22;25541;47.458;9.644;2022-11-12T21:40:43;9.10;99.50
38936;DHT22;25541;47.458;9.644;2022-11-12T21:43:09;9.20;99.60
38936;DHT22;25541;47.458;9.644;2022-11-12T21:45:34;9.10;99.70
38936;DHT22;25541;47.458;9.644;2022-11-12T21:48:00;9.20;99.60
38936;DHT22;25541;47.458;9.644;2022-11-12T21:50:26;9.20;99.70
38936;DHT22;25541;47.458;9.644;2022-11-12T21:52:54;9.10;99.30
38936;DHT22;25541;47.458;9.644;2022-11-12T21:55:20;9.00;99.70
38936;DHT22;25541;47.458;9.644;2022-11-12T21:57:46;8.90;99.90
38936;DHT22;25541;47.458;9.644;2022-11-12T22:00:12;8.90;99.90
38936;DHT22;25541;47.458;9.644;2022-11-12T22:02:38;8.90;99.90
38936;DHT22;25541;47.458;9.644;2022-11-12T22:05:04;9.00;99.90
38936;DHT22;25541;47.458;9.644;2022-11-12T22:07:32;9.10;99.90
38936;DHT22;25541;47.458;9.644;2022-11-12T22:09:57;9.10;99.90
38936;DHT22;25541;47.458;9.644;2022-11-12T22:12:23;9.10;99.90
38936;DHT22;25541;47.458;9.644;2022-11-12T22:14:49;9.10;99.90